Flight Track Log - Related Links

Times and Time Zones

All times are in EDT time to prevent confusion due to time zone crossing. See the N49KC flight status page for this flight to view local times or setup timezone preferences in your user account.

Time Position Orientation Groundspeed Altitude Reporting Facility
EDT Latitude Longitude Course Direction KTS MPH feet Rate Location/Type
Sat 11:50:31 AM 42.9483 -87.9569 315° West 137 158 4,500  Level Chicago Center
Sat 11:51:33 AM 42.9828 -87.9900 325° Northwest 146 168 6,300 1,597 Climbing Chicago Center
Sat 11:52:35 AM 43.0186 -88.0328 319° Northwest 166 191 7,800 1,548 Climbing Chicago Center
Sat 11:53:37 AM 43.0528 -88.0728 319° Northwest 164 189 9,500 1,659 Climbing Chicago Center
Sat 11:54:38 AM 43.0953 -88.1228 319° Northwest 171 197 11,200 1,463 Climbing Chicago Center
Sat 11:55:40 AM 43.1247 -88.1708 310° West 166 191 12,500 1,210 Climbing Chicago Center
Sat 11:56:42 AM 43.1433 -88.2300 293° West 169 194 13,700 1,065 Climbing Chicago Center
Sat 11:57:44 AM 43.1633 -88.2856 296° West 164 189 14,700 968 Climbing Chicago Center
Sat 11:58:46 AM 43.1844 -88.3467 295° West 175 201 15,700 919 Climbing Chicago Center
Sat 11:59:48 AM 43.2058 -88.4050 297° West 172 198 16,600 871 Climbing Chicago Center
Sat 12:00:50 PM 43.2264 -88.4661 295° West 176 203 17,500 823 Climbing Chicago Center
Sat 12:01:52 PM 43.2517 -88.5386 296° West 179 206 18,300 726 Climbing Chicago Center
Sat 12:02:54 PM 43.2753 -88.6050 296° West 189 217 19,000 726 Climbing Chicago Center
Sat 12:03:56 PM 43.2983 -88.6722 295° West 193 222 19,800 532 Climbing Chicago Center
Sat 12:04:58 PM 43.3217 -88.7425 295° West 200 230 20,100 484 Climbing Chicago Center
Sat 12:06:00 PM 43.3458 -88.8167 294° West 211 243 20,800 726 Climbing Chicago Center
Sat 12:07:02 PM 43.3686 -88.8856 294° West 201 231 21,600 532 Climbing Chicago Center
Sat 12:08:04 PM 43.3933 -88.9681 292° West 199 229 21,900 194 Climbing Chicago Center
Sat 12:09:06 PM 43.4169 -89.0456 293° West 215 247 22,000 48 Climbing Chicago Center
Sat 12:10:08 PM 43.4442 -89.1250 295° West 226 260 22,000  Level Chicago Center
Sat 12:11:10 PM 43.4719 -89.2067 295° West 233 268 22,000  Level Chicago Center
Sat 12:12:12 PM 43.4989 -89.2906 294° West 238 274 22,000  Level Chicago Center
Sat 12:13:14 PM 43.5281 -89.3708 297° West 235 270 22,000  Level Chicago Center
Sat 12:14:16 PM 43.5583 -89.4675 293° West 236 272 22,000  Level Chicago Center
Sat 12:15:18 PM 43.5881 -89.5508 296° West 240 276 22,000  Level Chicago Center
Sat 12:16:20 PM 43.6131 -89.6350 292° West 239 275 22,000  Level Chicago Center
Sat 12:17:22 PM 43.6397 -89.7189 294° West 239 275 22,000  Level Chicago Center
Sat 12:18:24 PM 43.6656 -89.8028 293° West 236 272 22,000  Level Chicago Center
Sat 12:19:26 PM 43.6936 -89.8869 295° West 240 276 22,000  Level Chicago Center
Sat 12:20:27 PM 43.7242 -89.9836 294° West 237 273 22,000  Level Chicago Center
Sat 12:21:29 PM 43.7494 -90.0672 293° West 237 273 22,000  Level Chicago Center
Sat 12:22:31 PM 43.7758 -90.1511 294° West 236 272 22,000  Level Chicago Center
Sat 12:23:17 PM 43.7964 -90.2211 292° West 237 273 22,000  Level Minneapolis Center
Sat 12:24:19 PM 43.8111 -90.2778 290° West 236 272 22,000  Level Minneapolis Center
Sat 12:25:21 PM 43.8414 -90.3747 293° West 236 272 22,000  Level Minneapolis Center
Sat 12:26:23 PM 43.8694 -90.4731 292° West 235 270 22,000  Level Minneapolis Center
Sat 12:27:25 PM 43.8936 -90.5558 292° West 232 267 22,000  Level Minneapolis Center
Sat 12:28:39 PM 43.9181 -90.6450 291° West 234 269 22,000  Level Minneapolis Center
Sat 12:29:42 PM 43.9458 -90.7450 291° West 235 270 22,000 -144 Level Minneapolis Center
Sat 12:30:44 PM 43.9686 -90.8308 290° West 239 275 21,700 -677 Descending Minneapolis Center
Sat 12:31:46 PM 43.9964 -90.9433 289° West 259 298 20,600 -774 Descending Minneapolis Center
Sat 12:32:48 PM 44.0239 -91.0389 292° West 267 307 20,100 -774 Descending Minneapolis Center
Sat 12:33:50 PM 44.0531 -91.1308 294° West 265 305 19,000 -1,016 Descending Minneapolis Center
Sat 12:34:52 PM 44.0831 -91.2275 293° West 270 311 18,000 -774 Descending Minneapolis Center
Sat 12:35:54 PM 44.1128 -91.3247 293° West 273 314 17,400 -919 Descending Minneapolis Center
Sat 12:36:56 PM 44.1478 -91.4381 293° West 270 311 16,100 -1,008 Descending Minneapolis Center
Sat 12:37:59 PM 44.1775 -91.5342 293° West 271 312 15,300 -864 Descending Minneapolis Center
Sat 12:39:01 PM 44.2069 -91.6272 294° West 267 307 14,300 -581 Descending Minneapolis Center
Sat 12:40:03 PM 44.2336 -91.7200 292° West 262 302 14,100 -88 Descending Minneapolis Center
Sat 12:41:17 PM 44.2594 -91.8058 293° West 249 287 14,100  Level Minneapolis Center
Sat 12:42:19 PM 44.2928 -91.9236 292° West 236 272 14,100  Level Minneapolis Center
Sat 12:43:21 PM 44.3150 -92.0058 291° West 230 265 14,100 -387 Level Minneapolis Center
Sat 12:44:23 PM 44.3372 -92.0942 289° West 237 273 13,300 -774 Descending Minneapolis Center
Sat 12:45:25 PM 44.3631 -92.1869 291° West 251 289 12,500 -774 Descending Minneapolis Center
Sat 12:46:27 PM 44.3919 -92.2767 294° West 254 292 11,700 -1,440 Descending Minneapolis Center
Sat 12:47:30 PM 44.4239 -92.3850 292° West 261 300 9,500 -2,688 Descending Minneapolis Center
Sat 12:48:32 PM 44.4561 -92.4822 295° West 265 305 6,100 -1,694 Descending Minneapolis Center
Sat 12:49:34 PM 44.4817 -92.5631 294° West 226 260 6,000  Descending Minneapolis Center
Sat 12:50:36 PM 44.5014 -92.6389 290° West 210 242 6,100 -242 Climbing Minneapolis Center
Sat 12:51:38 PM 44.5217 -92.7217 289° West 225 259 5,500 -532 Descending Minneapolis Center
Sat 12:52:40 PM 44.5419 -92.8061 289° West 232 267 5,000 -532 Descending Minneapolis Center
Sat 12:53:42 PM 44.5692 -92.9069 291° West 231 266 4,400 -532 Descending Minneapolis Center
Sat 12:54:44 PM 44.5897 -92.9897 289° West 226 260 3,900 -581 Descending Minneapolis Center
Sat 12:55:46 PM 44.6117 -93.0692 291° West 219 252 3,200 -387 Descending Minneapolis Center
Sat 12:56:48 PM 44.6303 -93.1419 290° West 201 231 3,100 -48 Descending Minneapolis Center
Sat 12:57:50 PM 44.6522 -93.2050 296° West 184 212 3,100  Level Minneapolis Center
Sat 12:58:52 PM 44.6864 -93.2608 311° West 186 214 3,100 -48 Level Minneapolis Center
Sat 12:59:54 PM 44.7217 -93.3161 312° West 187 215 3,000 -290 Descending Minneapolis Center
Sat 01:00:56 PM 44.7631 -93.3683 318° Northwest 196 226 2,500 -484 Descending Minneapolis Center
Sat 01:01:58 PM 44.8028 -93.3944 335° Northwest 157 181 2,000 -677 Descending Minneapolis Center
Sat 01:03:00 PM 44.8253 -93.4439 303° West 127 146 1,100 -871 Descending Minneapolis Center
Sat 01:04:00 PM 44.8167 -93.4500 325° Northwest  Level FlightAware Approximate
Sat 01:11:00 PM 44.8275 -93.4586 325° Northwest  Level Estimated

Login

Don't have an account? Register now (free) for customized features, flight alerts, and more!